createdAt,value
2022-12-06T00:01:30.299Z,2.10
2022-12-06T00:04:01.795Z,2.10
2022-12-06T00:06:33.492Z,2.10
2022-12-06T00:09:03.137Z,2.10
2022-12-06T00:11:33.567Z,2.20
2022-12-06T00:14:06.333Z,2.20
2022-12-06T00:16:35.804Z,2.10
2022-12-06T00:19:05.529Z,2.10
2022-12-06T00:21:35.346Z,2.30
2022-12-06T00:24:06.213Z,2.30
2022-12-06T00:26:37.742Z,2.30
2022-12-06T00:29:09.258Z,2.30
2022-12-06T00:31:37.820Z,2.30
2022-12-06T00:34:06.940Z,2.30
2022-12-06T00:36:36.834Z,2.30
2022-12-06T00:39:07.121Z,2.30
2022-12-06T00:41:35.954Z,2.30
2022-12-06T00:44:04.617Z,2.40
2022-12-06T00:46:35.761Z,2.40
2022-12-06T00:49:06.056Z,2.30
2022-12-06T00:51:35.997Z,2.30
2022-12-06T00:54:05.336Z,2.30
2022-12-06T00:56:34.393Z,2.30
2022-12-06T00:59:03.247Z,2.30
2022-12-06T01:01:36.209Z,2.30
2022-12-06T01:04:07.442Z,2.10
2022-12-06T01:06:38.759Z,2.20
2022-12-06T01:09:11.232Z,2.20
2022-12-06T01:11:40.154Z,2.20
2022-12-06T01:14:08.757Z,2.30
2022-12-06T01:16:43.047Z,2.30
2022-12-06T01:19:14.600Z,2.20
2022-12-06T01:21:43.130Z,2.30
2022-12-06T01:24:11.631Z,2.20
2022-12-06T01:26:40.169Z,2.20
2022-12-06T01:29:08.815Z,2.10
2022-12-06T01:31:39.107Z,2.10
2022-12-06T01:34:14.708Z,2.10
2022-12-06T01:36:43.558Z,2.20
2022-12-06T01:39:12.912Z,2.30
2022-12-06T01:41:41.831Z,2.30
2022-12-06T01:44:45.264Z,2.20
2022-12-06T01:47:17.947Z,2.20
2022-12-06T01:49:51.943Z,2.20
2022-12-06T01:52:22.833Z,2.30
2022-12-06T01:54:51.372Z,2.40
2022-12-06T01:57:20.021Z,2.50
2022-12-06T01:59:51.087Z,2.50
2022-12-06T02:02:19.950Z,2.40
2022-12-06T02:04:51.986Z,2.50
2022-12-06T02:07:21.705Z,2.40
2022-12-06T02:09:52.720Z,2.40
2022-12-06T02:12:21.419Z,2.40
2022-12-06T02:14:54.325Z,2.40
2022-12-06T02:17:38.085Z,2.40
2022-12-06T02:20:21.727Z,2.30
2022-12-06T02:23:22.038Z,2.30
2022-12-06T02:26:16.392Z,2.30
2022-12-06T02:29:23.244Z,2.20
2022-12-06T02:31:58.607Z,2.30
2022-12-06T02:34:36.017Z,2.30
2022-12-06T02:37:11.620Z,2.30
2022-12-06T02:39:47.061Z,2.30
2022-12-06T02:42:19.101Z,2.30
2022-12-06T02:44:52.898Z,2.30
2022-12-06T02:47:26.577Z,2.40
2022-12-06T02:49:56.106Z,2.40
2022-12-06T02:52:27.529Z,2.40
2022-12-06T02:54:59.616Z,2.30
2022-12-06T02:57:37.385Z,2.30
2022-12-06T03:00:38.531Z,2.30
2022-12-06T03:03:36.805Z,2.40
2022-12-06T03:06:36.599Z,2.40
2022-12-06T03:09:17.493Z,2.40
2022-12-06T03:11:53.205Z,2.50
2022-12-06T03:14:24.486Z,2.50
2022-12-06T03:17:04.907Z,2.50
2022-12-06T03:19:36.865Z,2.50
2022-12-06T03:22:09.537Z,2.70
2022-12-06T03:24:41.407Z,2.60
2022-12-06T03:27:12.718Z,2.50
2022-12-06T03:29:46.921Z,2.50
2022-12-06T03:32:19.095Z,2.50
2022-12-06T03:34:52.397Z,2.70
2022-12-06T03:37:24.928Z,2.60
2022-12-06T03:40:00.498Z,2.60
2022-12-06T03:42:30.608Z,2.70
2022-12-06T03:45:00.150Z,2.60
2022-12-06T03:47:34.532Z,2.70
2022-12-06T03:50:09.899Z,2.60
2022-12-06T03:52:40.638Z,2.60
2022-12-06T03:55:10.059Z,2.70
2022-12-06T03:57:38.758Z,2.70
2022-12-06T04:00:09.517Z,2.70
2022-12-06T04:02:42.786Z,2.70
2022-12-06T04:05:15.830Z,2.80
2022-12-06T04:07:44.437Z,2.70
2022-12-06T04:10:13.858Z,2.80
2022-12-06T04:12:59.610Z,2.70
2022-12-06T04:15:34.361Z,2.70
2022-12-06T04:18:14.276Z,2.60
2022-12-06T04:21:04.273Z,2.60
2022-12-06T04:23:35.446Z,2.60
2022-12-06T04:26:04.965Z,2.70
2022-12-06T04:28:51.008Z,2.70
2022-12-06T04:31:37.700Z,2.90
2022-12-06T04:34:23.788Z,2.80
2022-12-06T04:37:11.472Z,2.80
2022-12-06T04:39:39.968Z,2.90
2022-12-06T04:42:26.310Z,2.80
2022-12-06T04:44:54.987Z,2.70
2022-12-06T04:47:24.073Z,2.80
2022-12-06T04:49:52.973Z,2.80
2022-12-06T04:52:23.140Z,2.90
2022-12-06T04:54:51.791Z,2.80
2022-12-06T04:57:20.473Z,2.80
2022-12-06T04:59:50.545Z,2.80
2022-12-06T05:02:19.246Z,2.80
2022-12-06T05:04:47.793Z,2.80
2022-12-06T05:07:16.329Z,2.80
2022-12-06T05:09:46.545Z,2.70
2022-12-06T05:12:15.283Z,2.70
2022-12-06T05:14:53.006Z,2.80
2022-12-06T05:17:21.529Z,2.80
2022-12-06T05:19:50.236Z,2.80
2022-12-06T05:22:18.720Z,2.80
2022-12-06T05:24:49.149Z,2.70
2022-12-06T05:27:20.766Z,2.70
2022-12-06T05:29:49.713Z,2.70
2022-12-06T05:32:20.625Z,2.70
2022-12-06T05:34:50.180Z,2.60
2022-12-06T05:37:26.202Z,2.70
2022-12-06T05:39:56.477Z,2.60
2022-12-06T05:42:31.115Z,2.70
2022-12-06T05:45:02.213Z,2.70
2022-12-06T05:47:34.149Z,3.00
2022-12-06T05:50:03.493Z,2.90
2022-12-06T05:52:32.900Z,2.90
2022-12-06T05:55:03.550Z,3.00
2022-12-06T05:57:40.121Z,2.90
2022-12-06T06:00:12.752Z,2.90
2022-12-06T06:02:43.431Z,2.80
2022-12-06T06:05:12.702Z,2.90
2022-12-06T06:07:41.515Z,3.00
2022-12-06T06:10:12.512Z,3.00
2022-12-06T06:12:41.122Z,3.00
2022-12-06T06:15:10.640Z,3.00
2022-12-06T06:17:39.857Z,3.00
2022-12-06T06:20:15.936Z,3.00
2022-12-06T06:22:44.378Z,3.00
2022-12-06T06:25:14.250Z,3.00
2022-12-06T06:27:42.977Z,3.10
2022-12-06T06:30:13.469Z,3.10
2022-12-06T06:32:42.042Z,3.10
2022-12-06T06:35:11.900Z,3.10
2022-12-06T06:37:40.684Z,3.10
2022-12-06T06:40:11.494Z,3.10
2022-12-06T06:42:41.680Z,3.10
2022-12-06T06:45:10.857Z,3.10
2022-12-06T06:47:39.301Z,3.10
2022-12-06T06:50:09.055Z,3.10
2022-12-06T06:52:37.512Z,3.20
2022-12-06T06:55:06.702Z,3.00
2022-12-06T06:57:36.329Z,3.10
2022-12-06T07:00:07.543Z,3.10
2022-12-06T07:02:36.138Z,3.20
2022-12-06T07:05:04.881Z,3.10
2022-12-06T07:07:33.649Z,3.10
2022-12-06T07:10:02.796Z,3.20
2022-12-06T07:12:31.697Z,3.20
2022-12-06T07:15:00.067Z,3.10
2022-12-06T07:17:30.083Z,3.20
2022-12-06T07:19:58.692Z,3.30
2022-12-06T07:22:27.159Z,3.20
2022-12-06T07:24:55.467Z,3.20
2022-12-06T07:27:24.129Z,3.30
2022-12-06T07:29:52.628Z,3.40
2022-12-06T07:32:21.149Z,3.40
2022-12-06T07:34:51.194Z,3.40
2022-12-06T07:37:20.707Z,3.40
2022-12-06T07:39:49.211Z,3.40
2022-12-06T07:42:35.130Z,3.60
2022-12-06T07:45:07.357Z,3.70
2022-12-06T07:47:36.160Z,3.60
2022-12-06T07:50:10.558Z,3.60
2022-12-06T07:52:43.464Z,3.60
2022-12-06T07:55:13.147Z,3.60
2022-12-06T07:57:43.952Z,3.70
2022-12-06T08:00:15.441Z,3.70
2022-12-06T08:02:44.347Z,3.70
2022-12-06T08:05:14.362Z,3.60
2022-12-06T08:07:42.796Z,3.70
2022-12-06T08:10:11.250Z,3.70
2022-12-06T08:12:39.597Z,3.80
2022-12-06T08:15:13.172Z,3.90
2022-12-06T08:17:42.150Z,3.90
2022-12-06T08:20:14.471Z,3.90
2022-12-06T08:22:43.003Z,3.90
2022-12-06T08:25:11.570Z,4.00
2022-12-06T08:27:39.877Z,4.10
2022-12-06T08:30:09.534Z,4.20
2022-12-06T08:32:37.955Z,4.20
2022-12-06T08:35:07.095Z,4.40
2022-12-06T08:37:37.031Z,4.60
2022-12-06T08:40:06.263Z,4.90
2022-12-06T08:42:34.671Z,5.00
2022-12-06T08:45:07.010Z,5.10
2022-12-06T08:47:35.701Z,5.20
2022-12-06T08:50:04.201Z,5.20
2022-12-06T08:52:32.849Z,5.30
2022-12-06T08:55:02.828Z,5.30
2022-12-06T08:57:33.164Z,5.40
2022-12-06T09:00:02.112Z,5.40
2022-12-06T09:02:30.971Z,5.40
2022-12-06T09:04:59.542Z,5.40
2022-12-06T09:07:28.197Z,5.50
2022-12-06T09:09:56.907Z,5.50
2022-12-06T09:12:27.136Z,5.50
2022-12-06T09:14:55.653Z,5.50
2022-12-06T09:17:24.141Z,5.50
2022-12-06T09:19:52.834Z,5.50
2022-12-06T09:22:21.452Z,5.50
2022-12-06T09:24:49.968Z,5.40
2022-12-06T09:27:19.728Z,5.50
2022-12-06T09:29:49.760Z,5.50
2022-12-06T09:32:18.224Z,5.50
2022-12-06T09:34:46.754Z,5.50
2022-12-06T09:37:15.995Z,5.40
2022-12-06T09:39:47.153Z,5.50
2022-12-06T09:42:47.601Z,5.50
2022-12-06T09:45:38.142Z,5.50
2022-12-06T09:48:33.819Z,5.50
2022-12-06T09:51:16.676Z,5.50
2022-12-06T09:53:59.459Z,5.50
2022-12-06T09:56:36.384Z,5.50
2022-12-06T09:59:14.858Z,5.60
2022-12-06T10:02:05.984Z,5.60
2022-12-06T10:04:55.766Z,5.60
2022-12-06T10:07:32.721Z,5.70
2022-12-06T10:10:14.087Z,5.70
2022-12-06T10:12:56.921Z,5.60
2022-12-06T10:15:33.364Z,5.60
2022-12-06T10:18:36.554Z,5.70
2022-12-06T10:21:17.345Z,5.70
2022-12-06T10:24:02.080Z,5.80
2022-12-06T10:26:41.001Z,5.90
2022-12-06T10:29:25.786Z,6.00
2022-12-06T10:32:03.269Z,6.00
2022-12-06T10:34:49.352Z,6.10
2022-12-06T10:37:31.387Z,6.20
2022-12-06T10:40:04.504Z,6.30
2022-12-06T10:42:38.893Z,6.30
2022-12-06T10:45:32.872Z,6.30
2022-12-06T10:48:04.033Z,6.40
2022-12-06T10:50:43.942Z,6.50
2022-12-06T10:53:18.249Z,6.70
2022-12-06T10:55:53.267Z,6.80
2022-12-06T10:58:32.207Z,6.80
2022-12-06T11:01:02.670Z,6.80
2022-12-06T11:03:35.451Z,6.90
2022-12-06T11:06:13.928Z,6.90
2022-12-06T11:08:47.946Z,6.90
2022-12-06T11:11:19.059Z,6.80
2022-12-06T11:13:51.140Z,6.90
2022-12-06T11:16:23.771Z,6.90
2022-12-06T11:22:29.528Z,7.10
2022-12-06T11:26:19.207Z,7.00
2022-12-06T11:28:55.697Z,7.10
2022-12-06T11:31:40.212Z,7.20
2022-12-06T11:34:18.028Z,7.30
2022-12-06T11:36:58.169Z,7.20
2022-12-06T11:39:34.421Z,7.10
2022-12-06T11:42:07.962Z,7.20
2022-12-06T11:45:16.304Z,7.30
2022-12-06T11:48:17.856Z,7.20
2022-12-06T11:51:06.378Z,7.20
2022-12-06T11:54:02.806Z,7.40
2022-12-06T11:56:42.008Z,7.40
2022-12-06T11:59:32.376Z,7.30
2022-12-06T12:02:03.853Z,7.30
2022-12-06T12:04:40.047Z,7.30
2022-12-06T12:07:19.503Z,7.40
2022-12-06T12:09:57.705Z,7.80
2022-12-06T12:12:55.935Z,8.40
2022-12-06T12:15:32.233Z,8.30
2022-12-06T12:33:22.006Z,8.60
2022-12-06T12:35:59.620Z,8.20
2022-12-06T12:38:53.550Z,7.80
2022-12-06T12:42:38.000Z,7.60
2022-12-06T12:45:02.582Z,7.20
2022-12-06T12:47:32.935Z,6.90
2022-12-06T12:50:07.264Z,7.00
2022-12-06T12:52:42.061Z,7.00
2022-12-06T12:55:18.442Z,6.60
2022-12-06T12:57:57.222Z,6.50
2022-12-06T13:00:28.509Z,6.30
2022-12-06T13:03:00.149Z,6.20
2022-12-06T13:05:34.577Z,6.00
2022-12-06T13:08:12.942Z,6.00
2022-12-06T13:10:44.832Z,7.20
2022-12-06T13:13:18.273Z,9.20
2022-12-06T13:15:49.404Z,9.30
2022-12-06T13:18:22.529Z,9.00
2022-12-06T13:20:54.927Z,9.30
2022-12-06T13:23:28.481Z,9.30
2022-12-06T13:26:08.707Z,8.80
2022-12-06T13:28:42.701Z,8.20
2022-12-06T13:31:20.045Z,7.90
2022-12-06T13:34:10.537Z,7.80
2022-12-06T13:36:43.996Z,8.00
2022-12-06T13:39:38.910Z,8.10
2022-12-06T13:42:23.108Z,7.70
2022-12-06T13:45:00.907Z,7.60
2022-12-06T13:47:42.090Z,7.40
2022-12-06T13:50:44.282Z,7.20
2022-12-06T13:53:17.457Z,6.90
2022-12-06T13:56:00.999Z,6.80
2022-12-06T13:58:58.101Z,6.70
2022-12-06T14:01:40.681Z,6.60
2022-12-06T14:07:02.206Z,6.80
2022-12-06T14:09:41.863Z,6.90
2022-12-06T14:12:18.304Z,7.00
2022-12-06T14:14:57.434Z,7.00
2022-12-06T14:18:00.294Z,7.00
2022-12-06T14:20:22.563Z,7.00
2022-12-06T14:22:52.129Z,6.90
2022-12-06T14:25:25.810Z,6.90
2022-12-06T14:28:04.445Z,6.90
2022-12-06T14:30:33.915Z,7.00
2022-12-06T14:33:03.070Z,7.10
2022-12-06T14:35:36.388Z,7.10
2022-12-06T14:38:23.317Z,7.10
2022-12-06T14:41:11.497Z,6.90
2022-12-06T14:43:40.838Z,6.90
2022-12-06T14:46:13.820Z,6.80
2022-12-06T14:49:00.410Z,6.80
2022-12-06T14:51:38.172Z,6.70
2022-12-06T14:54:19.459Z,6.60
2022-12-06T14:56:49.834Z,6.50
2022-12-06T14:59:47.358Z,6.50
2022-12-06T15:02:24.132Z,6.40
2022-12-06T15:04:52.838Z,6.40
2022-12-06T15:07:33.728Z,6.40
2022-12-06T15:10:21.346Z,6.40
2022-12-06T15:12:59.255Z,6.30
2022-12-06T15:15:40.287Z,6.30
2022-12-06T15:18:17.945Z,6.30
2022-12-06T15:42:18.673Z,6.00
2022-12-06T15:44:49.744Z,5.90
2022-12-06T15:47:20.922Z,5.90
2022-12-06T15:49:54.348Z,5.90
2022-12-06T15:52:24.645Z,6.00
2022-12-06T15:54:55.804Z,5.90
2022-12-06T15:57:25.874Z,5.90
2022-12-06T16:00:00.460Z,5.90
2022-12-06T16:02:30.876Z,5.90
2022-12-06T16:05:10.449Z,5.90
2022-12-06T16:07:39.211Z,6.00
2022-12-06T16:10:09.178Z,5.90
2022-12-06T16:12:53.056Z,6.00
2022-12-06T16:15:23.075Z,5.90
2022-12-06T16:17:52.040Z,5.80
2022-12-06T16:20:35.805Z,5.90
2022-12-06T16:23:24.838Z,5.90
2022-12-06T16:25:58.283Z,5.90
2022-12-06T16:28:28.639Z,5.90
2022-12-06T16:30:57.565Z,5.90
2022-12-06T16:33:28.534Z,6.00
2022-12-06T16:35:59.919Z,6.00
2022-12-06T16:38:30.406Z,6.10
2022-12-06T16:41:04.939Z,6.00
2022-12-06T16:43:36.046Z,6.00
2022-12-06T16:46:23.420Z,6.00
2022-12-06T16:48:55.817Z,6.00
2022-12-06T16:51:25.667Z,6.00
2022-12-06T16:53:54.356Z,6.00
2022-12-06T16:56:26.201Z,6.00
2022-12-06T16:58:56.909Z,6.00
2022-12-06T17:01:27.529Z,6.10
2022-12-06T17:03:58.164Z,6.10
2022-12-06T17:06:27.972Z,6.10
2022-12-06T17:08:57.459Z,6.00
2022-12-06T17:11:45.354Z,6.00
2022-12-06T17:14:17.190Z,6.00
2022-12-06T17:16:46.674Z,6.00
2022-12-06T17:19:18.426Z,6.00
2022-12-06T17:21:47.393Z,6.00
2022-12-06T17:24:18.635Z,6.00
2022-12-06T17:26:47.461Z,6.00
2022-12-06T17:29:17.755Z,5.90
2022-12-06T17:31:46.552Z,5.90
2022-12-06T17:34:15.904Z,5.90
2022-12-06T17:36:45.046Z,5.90
2022-12-06T17:39:17.664Z,5.90
2022-12-06T17:42:03.804Z,5.90
2022-12-06T17:44:34.333Z,5.90
2022-12-06T17:47:03.491Z,5.90
2022-12-06T17:49:32.083Z,5.90
2022-12-06T17:52:00.671Z,5.90
2022-12-06T17:54:29.113Z,5.90
2022-12-06T17:56:57.647Z,6.00
2022-12-06T17:59:28.956Z,6.00
2022-12-06T18:02:16.761Z,5.90
2022-12-06T18:04:45.701Z,6.00
2022-12-06T18:07:15.086Z,6.00
2022-12-06T18:09:44.045Z,6.00
2022-12-06T18:12:13.863Z,5.90
2022-12-06T18:14:42.350Z,5.90
2022-12-06T18:17:13.761Z,6.00
2022-12-06T18:19:43.897Z,6.00
2022-12-06T18:22:12.514Z,6.00
2022-12-06T18:24:41.163Z,5.90
2022-12-06T18:27:09.720Z,5.90
2022-12-06T18:29:38.174Z,5.90
2022-12-06T18:32:07.193Z,5.90
2022-12-06T18:34:37.912Z,5.90
2022-12-06T18:37:06.419Z,5.90
2022-12-06T18:39:35.114Z,5.90
2022-12-06T18:42:03.690Z,5.90
2022-12-06T18:44:32.587Z,5.90
2022-12-06T18:47:01.373Z,5.90
2022-12-06T18:49:30.117Z,5.90
2022-12-06T18:52:00.180Z,5.90
2022-12-06T18:54:28.995Z,5.90
2022-12-06T18:56:59.327Z,6.00
2022-12-06T18:59:28.895Z,6.00
2022-12-06T19:01:57.852Z,6.00
2022-12-06T19:04:26.456Z,6.00
2022-12-06T19:06:55.617Z,5.90
2022-12-06T19:09:25.860Z,6.00
2022-12-06T19:11:54.488Z,6.00
2022-12-06T19:14:23.331Z,6.00
2022-12-06T19:16:53.077Z,6.00
2022-12-06T19:19:22.950Z,6.00
2022-12-06T19:21:53.146Z,6.00
2022-12-06T19:24:25.180Z,6.00
2022-12-06T19:26:55.348Z,5.90
2022-12-06T19:29:24.340Z,6.00
2022-12-06T19:31:53.361Z,6.00
2022-12-06T19:34:23.783Z,6.00
2022-12-06T19:36:53.635Z,6.00
2022-12-06T19:39:23.027Z,6.00
2022-12-06T19:42:07.394Z,6.00
2022-12-06T19:44:36.540Z,6.00
2022-12-06T19:47:05.748Z,6.00
2022-12-06T19:49:34.380Z,6.00
2022-12-06T19:52:06.466Z,6.00
2022-12-06T19:54:36.021Z,6.00
2022-12-06T19:57:06.457Z,6.00
2022-12-06T19:59:37.170Z,6.00
2022-12-06T20:02:06.779Z,6.00
2022-12-06T20:04:37.050Z,6.00
2022-12-06T20:07:05.905Z,6.00
2022-12-06T20:09:35.176Z,6.00
2022-12-06T20:12:09.080Z,6.00
2022-12-06T20:14:42.074Z,6.10
2022-12-06T20:19:55.564Z,6.00
2022-12-06T20:22:26.194Z,6.00
2022-12-06T20:24:54.776Z,6.00
2022-12-06T20:27:45.430Z,6.00
2022-12-06T20:30:16.946Z,6.00
2022-12-06T20:32:45.480Z,6.00
2022-12-06T20:35:14.145Z,6.00
2022-12-06T20:37:42.846Z,6.00
2022-12-06T20:40:12.673Z,6.00
2022-12-06T20:42:42.751Z,5.90
2022-12-06T20:45:11.749Z,5.90
2022-12-06T20:47:40.467Z,5.90
2022-12-06T20:50:10.203Z,5.90
2022-12-06T20:52:38.960Z,5.90
2022-12-06T20:55:33.202Z,5.90
2022-12-06T20:58:05.564Z,5.90
2022-12-06T21:00:34.040Z,5.90
2022-12-06T21:03:02.463Z,5.90
2022-12-06T21:05:30.917Z,5.90
2022-12-06T21:07:59.233Z,5.90
2022-12-06T21:10:27.826Z,5.90
2022-12-06T21:12:56.230Z,5.90
2022-12-06T21:15:26.104Z,5.90
2022-12-06T21:17:57.525Z,5.90
2022-12-06T21:20:25.965Z,5.90
2022-12-06T21:22:54.516Z,5.90
2022-12-06T21:25:22.897Z,5.90
2022-12-06T21:27:51.306Z,5.90
2022-12-06T21:30:19.790Z,5.90
2022-12-06T21:32:49.701Z,5.90
2022-12-06T21:35:18.380Z,5.90
2022-12-06T21:37:46.995Z,5.90
2022-12-06T21:40:16.218Z,5.90
2022-12-06T21:42:47.026Z,5.80
2022-12-06T21:45:17.184Z,5.90
2022-12-06T21:47:48.450Z,5.90
2022-12-06T21:50:20.086Z,5.90
2022-12-06T21:52:51.539Z,5.90
2022-12-06T21:55:21.295Z,5.80
2022-12-06T21:57:51.308Z,5.90
2022-12-06T22:00:25.366Z,5.80
2022-12-06T22:02:54.996Z,5.80
2022-12-06T22:05:25.771Z,5.80
2022-12-06T22:08:01.675Z,5.80
2022-12-06T22:10:31.193Z,5.70
2022-12-06T22:13:00.280Z,5.70
2022-12-06T22:15:38.033Z,5.70
2022-12-06T22:18:08.710Z,5.70
2022-12-06T22:20:57.653Z,5.70
2022-12-06T22:23:26.494Z,5.70
2022-12-06T22:25:55.902Z,5.70
2022-12-06T22:28:24.966Z,5.70
2022-12-06T22:30:54.894Z,5.80
2022-12-06T22:33:23.903Z,5.70
2022-12-06T22:35:54.960Z,5.70
2022-12-06T22:38:24.341Z,5.70
2022-12-06T22:40:58.241Z,5.70
2022-12-06T22:43:30.542Z,5.80
2022-12-06T22:46:05.796Z,5.80
2022-12-06T22:48:35.012Z,5.80
2022-12-06T22:51:14.303Z,5.80
2022-12-06T22:53:46.208Z,5.80
2022-12-06T22:56:17.837Z,5.80
2022-12-06T22:58:47.155Z,5.80
2022-12-06T23:01:18.400Z,5.80
2022-12-06T23:03:48.343Z,5.80
2022-12-06T23:06:22.064Z,5.80
2022-12-06T23:08:51.305Z,5.80
2022-12-06T23:11:23.906Z,5.80
2022-12-06T23:13:52.961Z,5.80
2022-12-06T23:16:24.602Z,5.80
2022-12-06T23:18:55.356Z,5.80
2022-12-06T23:21:28.298Z,5.80
2022-12-06T23:23:59.436Z,5.80
2022-12-06T23:26:32.229Z,5.80
2022-12-06T23:29:07.112Z,5.80
2022-12-06T23:31:39.861Z,5.70
2022-12-06T23:34:15.198Z,5.70
2022-12-06T23:36:47.128Z,5.70
2022-12-06T23:39:19.813Z,5.80
2022-12-06T23:41:50.125Z,5.70
2022-12-06T23:44:19.312Z,5.80
2022-12-06T23:46:49.837Z,5.80
2022-12-06T23:49:20.847Z,5.80
2022-12-06T23:51:52.296Z,5.80
2022-12-06T23:54:21.794Z,5.80
2022-12-06T23:56:52.280Z,5.80
2022-12-06T23:59:22.494Z,5.80
